sensor_id;sensor_type;location;lat;lon;timestamp;temperature;humidity
8424;DHT22;4249;49.072;9.770;2022-12-19T00:01:27;-3.20;1.00
8424;DHT22;4249;49.072;9.770;2022-12-19T00:04:15;-3.10;1.00
8424;DHT22;4249;49.072;9.770;2022-12-19T00:07:04;-3.10;1.00
8424;DHT22;4249;49.072;9.770;2022-12-19T00:09:51;-3.10;1.00
8424;DHT22;4249;49.072;9.770;2022-12-19T00:12:40;-3.10;1.00
8424;DHT22;4249;49.072;9.770;2022-12-19T00:15:28;-3.10;1.00
8424;DHT22;4249;49.072;9.770;2022-12-19T00:18:15;-3.10;1.00
8424;DHT22;4249;49.072;9.770;2022-12-19T00:21:04;-3.10;1.00
8424;DHT22;4249;49.072;9.770;2022-12-19T00:23:51;-3.10;1.00
8424;DHT22;4249;49.072;9.770;2022-12-19T00:26:39;-3.10;1.00
8424;DHT22;4249;49.072;9.770;2022-12-19T00:29:28;-3.10;1.00
8424;DHT22;4249;49.072;9.770;2022-12-19T00:32:15;-3.10;1.00
8424;DHT22;4249;49.072;9.770;2022-12-19T00:35:02;-3.10;1.00
8424;DHT22;4249;49.072;9.770;2022-12-19T00:37:49;-3.10;1.00
8424;DHT22;4249;49.072;9.770;2022-12-19T00:40:36;-3.10;1.00
8424;DHT22;4249;49.072;9.770;2022-12-19T00:43:23;-3.20;1.00
8424;DHT22;4249;49.072;9.770;2022-12-19T00:46:13;-3.20;99.90
8424;DHT22;4249;49.072;9.770;2022-12-19T00:49:02;-3.10;99.90
8424;DHT22;4249;49.072;9.770;2022-12-19T00:51:49;-3.20;99.90
8424;DHT22;4249;49.072;9.770;2022-12-19T00:54:37;-3.10;99.90
8424;DHT22;4249;49.072;9.770;2022-12-19T00:57:24;-3.10;46.30
8424;DHT22;4249;49.072;9.770;2022-12-19T01:00:12;-3.00;1.00
8424;DHT22;4249;49.072;9.770;2022-12-19T01:03:03;-3.00;1.00
8424;DHT22;4249;49.072;9.770;2022-12-19T01:05:51;-3.00;65.60
8424;DHT22;4249;49.072;9.770;2022-12-19T01:08:38;-3.00;1.00
8424;DHT22;4249;49.072;9.770;2022-12-19T01:11:25;-3.00;99.90
8424;DHT22;4249;49.072;9.770;2022-12-19T01:14:26;-3.00;1.00
8424;DHT22;4249;49.072;9.770;2022-12-19T01:17:14;-2.90;1.00
8424;DHT22;4249;49.072;9.770;2022-12-19T01:20:04;-2.90;1.00
8424;DHT22;4249;49.072;9.770;2022-12-19T01:22:51;-2.80;99.90
8424;DHT22;4249;49.072;9.770;2022-12-19T01:25:39;-2.70;1.00
8424;DHT22;4249;49.072;9.770;2022-12-19T01:28:26;-2.70;1.00
8424;DHT22;4249;49.072;9.770;2022-12-19T01:31:14;-2.70;1.00
8424;DHT22;4249;49.072;9.770;2022-12-19T01:34:03;-2.60;15.40
8424;DHT22;4249;49.072;9.770;2022-12-19T01:36:51;-2.60;98.50
8424;DHT22;4249;49.072;9.770;2022-12-19T01:39:38;-2.60;99.90
8424;DHT22;4249;49.072;9.770;2022-12-19T01:42:33;-2.50;99.90
8424;DHT22;4249;49.072;9.770;2022-12-19T01:45:26;-2.50;99.90
8424;DHT22;4249;49.072;9.770;2022-12-19T01:48:16;-2.40;99.90
8424;DHT22;4249;49.072;9.770;2022-12-19T01:51:11;-2.30;1.00
8424;DHT22;4249;49.072;9.770;2022-12-19T01:54:07;-2.10;99.90
8424;DHT22;4249;49.072;9.770;2022-12-19T01:56:58;-2.00;1.00
8424;DHT22;4249;49.072;9.770;2022-12-19T01:59:48;-1.90;1.00
8424;DHT22;4249;49.072;9.770;2022-12-19T02:02:39;-1.90;1.00
8424;DHT22;4249;49.072;9.770;2022-12-19T02:05:28;-1.90;1.00
8424;DHT22;4249;49.072;9.770;2022-12-19T02:08:17;-1.80;1.00
8424;DHT22;4249;49.072;9.770;2022-12-19T02:11:07;-1.80;1.00
8424;DHT22;4249;49.072;9.770;2022-12-19T02:13:54;-1.80;1.00
8424;DHT22;4249;49.072;9.770;2022-12-19T02:16:48;-1.80;1.00
8424;DHT22;4249;49.072;9.770;2022-12-19T02:20:06;-1.70;1.00
8424;DHT22;4249;49.072;9.770;2022-12-19T02:26:35;-1.70;99.90
8424;DHT22;4249;49.072;9.770;2022-12-19T02:29:54;-1.70;99.90
8424;DHT22;4249;49.072;9.770;2022-12-19T02:32:48;-1.70;99.90
8424;DHT22;4249;49.072;9.770;2022-12-19T02:35:44;-1.70;99.90
8424;DHT22;4249;49.072;9.770;2022-12-19T02:38:36;-1.70;1.00
8424;DHT22;4249;49.072;9.770;2022-12-19T02:41:27;-1.70;1.00
8424;DHT22;4249;49.072;9.770;2022-12-19T02:44:30;-1.80;1.00
8424;DHT22;4249;49.072;9.770;2022-12-19T02:47:19;-1.90;1.00
8424;DHT22;4249;49.072;9.770;2022-12-19T02:50:08;-1.90;1.00
8424;DHT22;4249;49.072;9.770;2022-12-19T02:52:55;-1.90;99.90
8424;DHT22;4249;49.072;9.770;2022-12-19T02:55:48;-1.90;99.90
8424;DHT22;4249;49.072;9.770;2022-12-19T02:58:48;-1.70;1.00
8424;DHT22;4249;49.072;9.770;2022-12-19T03:01:43;-1.80;99.90
8424;DHT22;4249;49.072;9.770;2022-12-19T03:04:40;-1.80;99.90
8424;DHT22;4249;49.072;9.770;2022-12-19T03:07:36;-1.80;99.90
8424;DHT22;4249;49.072;9.770;2022-12-19T03:10:30;-1.80;1.00
8424;DHT22;4249;49.072;9.770;2022-12-19T03:13:20;-1.80;1.00
8424;DHT22;4249;49.072;9.770;2022-12-19T03:16:10;-1.70;1.00
8424;DHT22;4249;49.072;9.770;2022-12-19T03:18:58;-1.60;1.00
8424;DHT22;4249;49.072;9.770;2022-12-19T03:21:46;-1.60;99.90
8424;DHT22;4249;49.072;9.770;2022-12-19T03:24:35;-1.50;1.00
8424;DHT22;4249;49.072;9.770;2022-12-19T03:27:26;-1.50;99.90
8424;DHT22;4249;49.072;9.770;2022-12-19T03:30:15;-1.40;99.90
8424;DHT22;4249;49.072;9.770;2022-12-19T03:33:02;-1.40;1.00
8424;DHT22;4249;49.072;9.770;2022-12-19T03:35:50;-1.50;1.00
8424;DHT22;4249;49.072;9.770;2022-12-19T03:38:39;-1.40;1.00
8424;DHT22;4249;49.072;9.770;2022-12-19T03:41:30;-1.30;99.90
8424;DHT22;4249;49.072;9.770;2022-12-19T03:44:38;-1.20;1.00
8424;DHT22;4249;49.072;9.770;2022-12-19T03:47:30;-1.10;1.00
8424;DHT22;4249;49.072;9.770;2022-12-19T03:50:23;-1.10;1.00
8424;DHT22;4249;49.072;9.770;2022-12-19T03:53:23;-1.10;1.00
8424;DHT22;4249;49.072;9.770;2022-12-19T03:56:21;-1.10;1.00
8424;DHT22;4249;49.072;9.770;2022-12-19T03:59:17;-1.10;99.90
8424;DHT22;4249;49.072;9.770;2022-12-19T04:02:06;-1.20;1.00
8424;DHT22;4249;49.072;9.770;2022-12-19T04:04:56;-0.90;1.00
8424;DHT22;4249;49.072;9.770;2022-12-19T04:07:46;-1.00;1.00
8424;DHT22;4249;49.072;9.770;2022-12-19T04:10:39;-1.00;1.00
8424;DHT22;4249;49.072;9.770;2022-12-19T04:13:34;-1.10;20.30
8424;DHT22;4249;49.072;9.770;2022-12-19T04:16:27;-1.00;96.50
8424;DHT22;4249;49.072;9.770;2022-12-19T04:19:18;-1.00;14.90
8424;DHT22;4249;49.072;9.770;2022-12-19T04:22:11;-1.00;99.90
8424;DHT22;4249;49.072;9.770;2022-12-19T04:25:00;-0.90;99.90
8424;DHT22;4249;49.072;9.770;2022-12-19T04:27:51;-0.90;1.00
8424;DHT22;4249;49.072;9.770;2022-12-19T04:30:40;-0.90;1.00
8424;DHT22;4249;49.072;9.770;2022-12-19T04:33:30;-0.80;1.00
8424;DHT22;4249;49.072;9.770;2022-12-19T04:36:19;-0.70;1.00
8424;DHT22;4249;49.072;9.770;2022-12-19T04:39:06;-0.80;99.90
8424;DHT22;4249;49.072;9.770;2022-12-19T04:41:54;-0.80;1.00
8424;DHT22;4249;49.072;9.770;2022-12-19T04:44:41;-0.80;1.00
8424;DHT22;4249;49.072;9.770;2022-12-19T04:47:28;-0.80;1.00
8424;DHT22;4249;49.072;9.770;2022-12-19T04:50:16;-0.80;1.00
8424;DHT22;4249;49.072;9.770;2022-12-19T04:53:04;-0.90;99.90
8424;DHT22;4249;49.072;9.770;2022-12-19T04:55:59;-0.80;1.00
8424;DHT22;4249;49.072;9.770;2022-12-19T04:58:46;-0.80;1.00
8424;DHT22;4249;49.072;9.770;2022-12-19T05:01:35;-0.70;1.00
8424;DHT22;4249;49.072;9.770;2022-12-19T05:04:22;-0.70;1.00
8424;DHT22;4249;49.072;9.770;2022-12-19T05:07:12;-0.70;1.00
8424;DHT22;4249;49.072;9.770;2022-12-19T05:10:00;-0.60;99.90
8424;DHT22;4249;49.072;9.770;2022-12-19T05:12:47;-0.70;99.90
8424;DHT22;4249;49.072;9.770;2022-12-19T05:15:34;-0.70;1.00
8424;DHT22;4249;49.072;9.770;2022-12-19T05:18:22;-0.60;1.00
8424;DHT22;4249;49.072;9.770;2022-12-19T05:21:09;-0.60;1.00
8424;DHT22;4249;49.072;9.770;2022-12-19T05:23:58;-0.60;1.00
8424;DHT22;4249;49.072;9.770;2022-12-19T05:26:46;-0.50;20.20
8424;DHT22;4249;49.072;9.770;2022-12-19T05:29:33;-0.50;99.90
8424;DHT22;4249;49.072;9.770;2022-12-19T05:32:21;-0.40;99.90
8424;DHT22;4249;49.072;9.770;2022-12-19T05:35:08;-0.40;1.00
8424;DHT22;4249;49.072;9.770;2022-12-19T05:37:55;-0.30;1.00
8424;DHT22;4249;49.072;9.770;2022-12-19T05:40:44;-0.30;1.00
8424;DHT22;4249;49.072;9.770;2022-12-19T05:43:31;-0.20;1.00
8424;DHT22;4249;49.072;9.770;2022-12-19T05:46:19;-0.20;1.00
8424;DHT22;4249;49.072;9.770;2022-12-19T05:49:06;-0.20;1.00
8424;DHT22;4249;49.072;9.770;2022-12-19T05:51:56;-0.10;1.00
8424;DHT22;4249;49.072;9.770;2022-12-19T05:54:43;-0.10;1.00
8424;DHT22;4249;49.072;9.770;2022-12-19T05:57:32;-0.10;1.00
8424;DHT22;4249;49.072;9.770;2022-12-19T06:00:19;-0.20;99.90
8424;DHT22;4249;49.072;9.770;2022-12-19T06:03:06;-0.10;1.00
8424;DHT22;4249;49.072;9.770;2022-12-19T06:05:55;-0.10;1.00
8424;DHT22;4249;49.072;9.770;2022-12-19T06:08:43;-0.10;1.00
8424;DHT22;4249;49.072;9.770;2022-12-19T06:11:30;0.00;1.00
8424;DHT22;4249;49.072;9.770;2022-12-19T06:14:19;0.00;99.90
8424;DHT22;4249;49.072;9.770;2022-12-19T06:17:06;0.00;1.00
8424;DHT22;4249;49.072;9.770;2022-12-19T06:19:53;-0.10;1.00
8424;DHT22;4249;49.072;9.770;2022-12-19T06:22:40;0.00;1.00
8424;DHT22;4249;49.072;9.770;2022-12-19T06:25:08;0.00;99.90
8424;DHT22;4249;49.072;9.770;2022-12-19T06:27:35;0.00;99.90
8424;DHT22;4249;49.072;9.770;2022-12-19T06:30:06;0.00;99.90
8424;DHT22;4249;49.072;9.770;2022-12-19T06:32:34;0.00;1.00
8424;DHT22;4249;49.072;9.770;2022-12-19T06:35:01;0.00;1.00
8424;DHT22;4249;49.072;9.770;2022-12-19T06:37:27;0.10;99.90
8424;DHT22;4249;49.072;9.770;2022-12-19T06:39:54;0.00;1.00
8424;DHT22;4249;49.072;9.770;2022-12-19T06:42:21;0.00;1.00
8424;DHT22;4249;49.072;9.770;2022-12-19T06:44:47;0.10;1.00
8424;DHT22;4249;49.072;9.770;2022-12-19T06:47:16;0.10;1.00
8424;DHT22;4249;49.072;9.770;2022-12-19T06:49:43;0.10;1.00
8424;DHT22;4249;49.072;9.770;2022-12-19T06:52:10;0.10;1.00
8424;DHT22;4249;49.072;9.770;2022-12-19T06:54:37;0.10;1.00
8424;DHT22;4249;49.072;9.770;2022-12-19T06:57:07;0.20;1.00
8424;DHT22;4249;49.072;9.770;2022-12-19T06:59:35;0.10;1.00
8424;DHT22;4249;49.072;9.770;2022-12-19T07:02:10;0.20;1.00
8424;DHT22;4249;49.072;9.770;2022-12-19T07:04:46;0.20;1.00
8424;DHT22;4249;49.072;9.770;2022-12-19T07:07:15;0.20;1.00
8424;DHT22;4249;49.072;9.770;2022-12-19T07:09:42;0.20;1.00
8424;DHT22;4249;49.072;9.770;2022-12-19T07:12:12;0.20;1.00
8424;DHT22;4249;49.072;9.770;2022-12-19T07:14:40;0.20;1.00
8424;DHT22;4249;49.072;9.770;2022-12-19T07:17:07;0.20;1.00
8424;DHT22;4249;49.072;9.770;2022-12-19T07:19:34;0.20;1.00
8424;DHT22;4249;49.072;9.770;2022-12-19T07:22:03;0.20;1.00
8424;DHT22;4249;49.072;9.770;2022-12-19T07:24:31;0.20;1.00
8424;DHT22;4249;49.072;9.770;2022-12-19T07:27:03;0.30;1.00
8424;DHT22;4249;49.072;9.770;2022-12-19T07:29:35;0.40;1.00
8424;DHT22;4249;49.072;9.770;2022-12-19T07:32:03;0.40;1.00
8424;DHT22;4249;49.072;9.770;2022-12-19T07:34:31;0.40;1.00
8424;DHT22;4249;49.072;9.770;2022-12-19T07:36:58;0.40;1.00
8424;DHT22;4249;49.072;9.770;2022-12-19T07:39:26;0.50;1.00
8424;DHT22;4249;49.072;9.770;2022-12-19T07:41:53;0.50;1.00
8424;DHT22;4249;49.072;9.770;2022-12-19T07:44:19;0.60;1.00
8424;DHT22;4249;49.072;9.770;2022-12-19T07:46:46;0.70;1.00
8424;DHT22;4249;49.072;9.770;2022-12-19T07:49:13;0.70;1.00
8424;DHT22;4249;49.072;9.770;2022-12-19T07:51:40;0.70;1.00
8424;DHT22;4249;49.072;9.770;2022-12-19T07:54:07;0.80;1.00
8424;DHT22;4249;49.072;9.770;2022-12-19T07:56:35;0.80;1.00
8424;DHT22;4249;49.072;9.770;2022-12-19T07:59:02;0.80;1.00
8424;DHT22;4249;49.072;9.770;2022-12-19T08:01:30;0.80;1.00
8424;DHT22;4249;49.072;9.770;2022-12-19T08:03:57;0.90;1.00
8424;DHT22;4249;49.072;9.770;2022-12-19T08:06:24;1.00;1.00
8424;DHT22;4249;49.072;9.770;2022-12-19T08:08:51;1.10;1.00
8424;DHT22;4249;49.072;9.770;2022-12-19T08:11:19;1.10;1.00
8424;DHT22;4249;49.072;9.770;2022-12-19T08:13:54;1.10;1.00
8424;DHT22;4249;49.072;9.770;2022-12-19T08:16:25;1.10;25.30
8424;DHT22;4249;49.072;9.770;2022-12-19T08:18:54;1.10;99.90
8424;DHT22;4249;49.072;9.770;2022-12-19T08:21:21;1.20;99.90
8424;DHT22;4249;49.072;9.770;2022-12-19T08:23:48;1.20;99.90
8424;DHT22;4249;49.072;9.770;2022-12-19T08:26:16;1.30;99.90
8424;DHT22;4249;49.072;9.770;2022-12-19T08:28:49;1.40;1.00
8424;DHT22;4249;49.072;9.770;2022-12-19T08:31:18;1.50;1.00
8424;DHT22;4249;49.072;9.770;2022-12-19T08:33:45;1.50;1.00
8424;DHT22;4249;49.072;9.770;2022-12-19T08:36:14;1.50;11.00
8424;DHT22;4249;49.072;9.770;2022-12-19T08:38:41;1.50;27.40
8424;DHT22;4249;49.072;9.770;2022-12-19T08:41:08;1.50;19.70
8424;DHT22;4249;49.072;9.770;2022-12-19T08:43:36;1.60;99.90
8424;DHT22;4249;49.072;9.770;2022-12-19T08:46:04;1.70;91.60
8424;DHT22;4249;49.072;9.770;2022-12-19T08:48:33;1.80;1.00
8424;DHT22;4249;49.072;9.770;2022-12-19T08:51:01;1.90;1.00
8424;DHT22;4249;49.072;9.770;2022-12-19T08:53:29;1.90;99.90
8424;DHT22;4249;49.072;9.770;2022-12-19T08:56:04;2.00;99.90
8424;DHT22;4249;49.072;9.770;2022-12-19T08:58:32;2.00;99.90
8424;DHT22;4249;49.072;9.770;2022-12-19T09:01:00;2.00;1.00
8424;DHT22;4249;49.072;9.770;2022-12-19T09:03:29;2.10;1.00
8424;DHT22;4249;49.072;9.770;2022-12-19T09:06:00;2.10;1.00
8424;DHT22;4249;49.072;9.770;2022-12-19T09:08:28;2.10;1.00
8424;DHT22;4249;49.072;9.770;2022-12-19T09:10:57;2.20;1.00
8424;DHT22;4249;49.072;9.770;2022-12-19T09:13:24;2.30;1.00
8424;DHT22;4249;49.072;9.770;2022-12-19T09:15:59;2.50;99.90
8424;DHT22;4249;49.072;9.770;2022-12-19T09:18:27;2.60;1.00
8424;DHT22;4249;49.072;9.770;2022-12-19T09:20:54;2.70;99.90
8424;DHT22;4249;49.072;9.770;2022-12-19T09:23:23;2.80;89.40
8424;DHT22;4249;49.072;9.770;2022-12-19T09:25:51;3.00;1.00
8424;DHT22;4249;49.072;9.770;2022-12-19T09:28:18;3.00;99.90
8424;DHT22;4249;49.072;9.770;2022-12-19T09:30:52;3.10;99.90
8424;DHT22;4249;49.072;9.770;2022-12-19T09:33:20;3.10;1.00
8424;DHT22;4249;49.072;9.770;2022-12-19T09:35:49;3.10;1.00
8424;DHT22;4249;49.072;9.770;2022-12-19T09:38:17;3.20;1.00
8424;DHT22;4249;49.072;9.770;2022-12-19T09:40:55;3.30;1.00
8424;DHT22;4249;49.072;9.770;2022-12-19T09:43:35;3.40;1.00
8424;DHT22;4249;49.072;9.770;2022-12-19T09:46:14;3.60;1.00
8424;DHT22;4249;49.072;9.770;2022-12-19T09:48:42;3.80;1.00
8424;DHT22;4249;49.072;9.770;2022-12-19T09:51:12;3.80;1.00
8424;DHT22;4249;49.072;9.770;2022-12-19T09:53:51;4.00;1.00
8424;DHT22;4249;49.072;9.770;2022-12-19T09:56:27;4.10;99.90
8424;DHT22;4249;49.072;9.770;2022-12-19T09:58:59;4.10;99.90
8424;DHT22;4249;49.072;9.770;2022-12-19T10:01:31;4.10;63.20
8424;DHT22;4249;49.072;9.770;2022-12-19T10:04:02;4.10;98.60
8424;DHT22;4249;49.072;9.770;2022-12-19T10:06:30;4.20;40.90
8424;DHT22;4249;49.072;9.770;2022-12-19T10:08:58;4.30;6.70
8424;DHT22;4249;49.072;9.770;2022-12-19T10:11:39;4.40;1.00
8424;DHT22;4249;49.072;9.770;2022-12-19T10:14:20;4.40;1.00
8424;DHT22;4249;49.072;9.770;2022-12-19T10:16:58;4.30;1.00
8424;DHT22;4249;49.072;9.770;2022-12-19T10:19:35;4.40;1.00
8424;DHT22;4249;49.072;9.770;2022-12-19T10:22:12;4.30;1.00
8424;DHT22;4249;49.072;9.770;2022-12-19T10:25:01;4.40;1.00
8424;DHT22;4249;49.072;9.770;2022-12-19T10:27:37;4.50;1.00
8424;DHT22;4249;49.072;9.770;2022-12-19T10:30:13;4.60;1.00
8424;DHT22;4249;49.072;9.770;2022-12-19T10:32:46;4.70;1.00
8424;DHT22;4249;49.072;9.770;2022-12-19T10:35:17;4.90;1.00
8424;DHT22;4249;49.072;9.770;2022-12-19T10:37:49;5.00;1.00
8424;DHT22;4249;49.072;9.770;2022-12-19T10:40:22;5.00;1.00
8424;DHT22;4249;49.072;9.770;2022-12-19T10:42:57;5.00;1.00
8424;DHT22;4249;49.072;9.770;2022-12-19T10:45:29;5.10;1.00
8424;DHT22;4249;49.072;9.770;2022-12-19T10:47:59;5.20;1.00
8424;DHT22;4249;49.072;9.770;2022-12-19T10:50:28;5.40;1.00
8424;DHT22;4249;49.072;9.770;2022-12-19T10:53:06;5.50;1.00
8424;DHT22;4249;49.072;9.770;2022-12-19T10:55:42;5.70;1.00
8424;DHT22;4249;49.072;9.770;2022-12-19T10:58:18;5.80;1.00
8424;DHT22;4249;49.072;9.770;2022-12-19T11:01:08;5.80;1.00
8424;DHT22;4249;49.072;9.770;2022-12-19T11:03:37;5.90;1.00
8424;DHT22;4249;49.072;9.770;2022-12-19T11:06:05;5.90;1.00
8424;DHT22;4249;49.072;9.770;2022-12-19T11:08:33;5.90;1.00
8424;DHT22;4249;49.072;9.770;2022-12-19T11:11:11;5.90;1.00
8424;DHT22;4249;49.072;9.770;2022-12-19T11:13:42;5.90;1.00
8424;DHT22;4249;49.072;9.770;2022-12-19T11:16:09;5.70;1.00
8424;DHT22;4249;49.072;9.770;2022-12-19T11:18:40;5.80;1.00
8424;DHT22;4249;49.072;9.770;2022-12-19T11:21:15;5.70;1.00
8424;DHT22;4249;49.072;9.770;2022-12-19T11:23:49;5.70;1.00
8424;DHT22;4249;49.072;9.770;2022-12-19T11:26:31;5.70;1.00
8424;DHT22;4249;49.072;9.770;2022-12-19T11:29:02;5.80;1.00
8424;DHT22;4249;49.072;9.770;2022-12-19T11:31:30;5.90;1.00
8424;DHT22;4249;49.072;9.770;2022-12-19T11:34:05;6.00;1.00
8424;DHT22;4249;49.072;9.770;2022-12-19T11:36:36;6.30;1.00
8424;DHT22;4249;49.072;9.770;2022-12-19T11:39:07;6.40;1.00
8424;DHT22;4249;49.072;9.770;2022-12-19T11:41:41;6.60;99.90
8424;DHT22;4249;49.072;9.770;2022-12-19T11:44:21;6.50;99.90
8424;DHT22;4249;49.072;9.770;2022-12-19T11:46:55;6.50;99.90
8424;DHT22;4249;49.072;9.770;2022-12-19T11:49:27;6.50;99.90
8424;DHT22;4249;49.072;9.770;2022-12-19T11:51:59;6.60;99.90
8424;DHT22;4249;49.072;9.770;2022-12-19T11:54:33;6.60;99.90
8424;DHT22;4249;49.072;9.770;2022-12-19T11:57:02;6.60;99.90
8424;DHT22;4249;49.072;9.770;2022-12-19T11:59:33;6.60;99.90
8424;DHT22;4249;49.072;9.770;2022-12-19T12:02:16;6.60;99.90
8424;DHT22;4249;49.072;9.770;2022-12-19T12:04:59;6.60;99.90
8424;DHT22;4249;49.072;9.770;2022-12-19T12:07:33;6.60;99.90
8424;DHT22;4249;49.072;9.770;2022-12-19T12:10:09;6.60;99.90
8424;DHT22;4249;49.072;9.770;2022-12-19T12:12:45;6.60;99.90
8424;DHT22;4249;49.072;9.770;2022-12-19T12:15:30;6.60;99.90
8424;DHT22;4249;49.072;9.770;2022-12-19T12:18:06;6.40;99.90
8424;DHT22;4249;49.072;9.770;2022-12-19T12:20:39;6.30;99.90
8424;DHT22;4249;49.072;9.770;2022-12-19T12:23:23;6.20;99.90
8424;DHT22;4249;49.072;9.770;2022-12-19T12:25:58;6.20;99.90
8424;DHT22;4249;49.072;9.770;2022-12-19T12:28:51;6.10;99.90
8424;DHT22;4249;49.072;9.770;2022-12-19T12:31:35;6.10;99.90
8424;DHT22;4249;49.072;9.770;2022-12-19T12:34:17;6.10;99.90
8424;DHT22;4249;49.072;9.770;2022-12-19T12:36:52;6.10;99.90
8424;DHT22;4249;49.072;9.770;2022-12-19T12:39:29;6.00;99.90
8424;DHT22;4249;49.072;9.770;2022-12-19T12:42:08;6.00;99.90
8424;DHT22;4249;49.072;9.770;2022-12-19T12:44:40;5.90;99.90
8424;DHT22;4249;49.072;9.770;2022-12-19T12:47:22;5.90;99.90
8424;DHT22;4249;49.072;9.770;2022-12-19T12:49:53;5.90;99.90
8424;DHT22;4249;49.072;9.770;2022-12-19T12:52:26;5.90;99.90
8424;DHT22;4249;49.072;9.770;2022-12-19T12:54:56;5.80;99.90
8424;DHT22;4249;49.072;9.770;2022-12-19T12:57:33;5.90;99.90
8424;DHT22;4249;49.072;9.770;2022-12-19T13:00:21;5.80;99.90
8424;DHT22;4249;49.072;9.770;2022-12-19T13:02:53;5.70;99.90
8424;DHT22;4249;49.072;9.770;2022-12-19T13:05:33;5.70;99.90
8424;DHT22;4249;49.072;9.770;2022-12-19T13:08:01;5.70;1.00
8424;DHT22;4249;49.072;9.770;2022-12-19T13:10:53;5.70;1.00
8424;DHT22;4249;49.072;9.770;2022-12-19T13:13:48;5.70;1.00
8424;DHT22;4249;49.072;9.770;2022-12-19T13:19:24;5.60;1.00
8424;DHT22;4249;49.072;9.770;2022-12-19T13:22:37;5.70;1.00
8424;DHT22;4249;49.072;9.770;2022-12-19T13:28:28;5.70;1.00
8424;DHT22;4249;49.072;9.770;2022-12-19T13:31:16;5.80;1.00
8424;DHT22;4249;49.072;9.770;2022-12-19T13:34:18;5.90;1.00
8424;DHT22;4249;49.072;9.770;2022-12-19T13:36:47;5.90;1.00
8424;DHT22;4249;49.072;9.770;2022-12-19T13:39:29;5.90;1.00
8424;DHT22;4249;49.072;9.770;2022-12-19T13:42:04;5.90;1.00
8424;DHT22;4249;49.072;9.770;2022-12-19T13:44:53;5.90;1.00
8424;DHT22;4249;49.072;9.770;2022-12-19T13:47:31;6.00;1.00
8424;DHT22;4249;49.072;9.770;2022-12-19T13:49:59;6.00;1.00
8424;DHT22;4249;49.072;9.770;2022-12-19T13:52:26;6.00;1.00
8424;DHT22;4249;49.072;9.770;2022-12-19T13:54:56;6.00;1.00
8424;DHT22;4249;49.072;9.770;2022-12-19T13:57:25;5.90;1.00
8424;DHT22;4249;49.072;9.770;2022-12-19T13:59:55;5.90;1.00
8424;DHT22;4249;49.072;9.770;2022-12-19T14:02:27;5.90;1.00
8424;DHT22;4249;49.072;9.770;2022-12-19T14:04:56;5.80;1.00
8424;DHT22;4249;49.072;9.770;2022-12-19T14:07:34;5.60;1.00
8424;DHT22;4249;49.072;9.770;2022-12-19T14:10:04;5.50;1.00
8424;DHT22;4249;49.072;9.770;2022-12-19T14:12:38;5.40;1.00
8424;DHT22;4249;49.072;9.770;2022-12-19T14:15:28;5.30;1.00
8424;DHT22;4249;49.072;9.770;2022-12-19T14:17:59;5.10;1.00
8424;DHT22;4249;49.072;9.770;2022-12-19T14:20:27;5.00;1.00
8424;DHT22;4249;49.072;9.770;2022-12-19T14:22:56;4.80;1.00
8424;DHT22;4249;49.072;9.770;2022-12-19T14:25:35;4.70;1.00
8424;DHT22;4249;49.072;9.770;2022-12-19T14:28:05;4.50;1.00
8424;DHT22;4249;49.072;9.770;2022-12-19T14:30:36;4.40;99.90
8424;DHT22;4249;49.072;9.770;2022-12-19T14:33:10;4.30;99.90
8424;DHT22;4249;49.072;9.770;2022-12-19T14:35:43;4.20;1.00
8424;DHT22;4249;49.072;9.770;2022-12-19T14:38:14;4.10;1.00
8424;DHT22;4249;49.072;9.770;2022-12-19T14:40:44;4.00;99.90
8424;DHT22;4249;49.072;9.770;2022-12-19T14:43:15;4.00;1.00
8424;DHT22;4249;49.072;9.770;2022-12-19T14:46:22;3.90;1.00
8424;DHT22;4249;49.072;9.770;2022-12-19T14:48:55;3.90;99.90
8424;DHT22;4249;49.072;9.770;2022-12-19T14:51:26;3.70;99.90
8424;DHT22;4249;49.072;9.770;2022-12-19T14:54:04;3.70;1.00
8424;DHT22;4249;49.072;9.770;2022-12-19T14:56:33;3.60;1.00
8424;DHT22;4249;49.072;9.770;2022-12-19T14:59:27;3.50;10.60
8424;DHT22;4249;49.072;9.770;2022-12-19T15:01:57;3.50;1.00
8424;DHT22;4249;49.072;9.770;2022-12-19T15:04:30;3.40;93.10
8424;DHT22;4249;49.072;9.770;2022-12-19T15:07:00;3.30;1.00
8424;DHT22;4249;49.072;9.770;2022-12-19T15:09:31;3.30;1.00
8424;DHT22;4249;49.072;9.770;2022-12-19T15:12:10;3.20;1.00
8424;DHT22;4249;49.072;9.770;2022-12-19T15:15:06;3.20;1.00
8424;DHT22;4249;49.072;9.770;2022-12-19T15:17:44;3.10;99.90
8424;DHT22;4249;49.072;9.770;2022-12-19T15:20:13;3.10;99.90
8424;DHT22;4249;49.072;9.770;2022-12-19T15:22:40;3.00;99.90
8424;DHT22;4249;49.072;9.770;2022-12-19T15:25:08;3.00;1.00
8424;DHT22;4249;49.072;9.770;2022-12-19T15:27:37;3.00;1.00
8424;DHT22;4249;49.072;9.770;2022-12-19T15:30:13;3.00;99.90
8424;DHT22;4249;49.072;9.770;2022-12-19T15:32:41;2.90;1.00
8424;DHT22;4249;49.072;9.770;2022-12-19T15:35:12;2.80;1.00
8424;DHT22;4249;49.072;9.770;2022-12-19T15:37:39;2.80;36.30
8424;DHT22;4249;49.072;9.770;2022-12-19T15:40:13;2.80;99.90
8424;DHT22;4249;49.072;9.770;2022-12-19T15:42:41;2.80;99.90
8424;DHT22;4249;49.072;9.770;2022-12-19T15:45:12;2.70;99.90
8424;DHT22;4249;49.072;9.770;2022-12-19T15:47:39;2.70;99.90
8424;DHT22;4249;49.072;9.770;2022-12-19T15:50:17;2.80;99.90
8424;DHT22;4249;49.072;9.770;2022-12-19T15:52:45;2.70;99.90
8424;DHT22;4249;49.072;9.770;2022-12-19T15:55:13;2.60;99.90
8424;DHT22;4249;49.072;9.770;2022-12-19T15:57:41;2.60;99.90
8424;DHT22;4249;49.072;9.770;2022-12-19T16:00:16;2.60;99.90
8424;DHT22;4249;49.072;9.770;2022-12-19T16:02:45;2.60;99.90
8424;DHT22;4249;49.072;9.770;2022-12-19T16:05:12;2.50;99.90
8424;DHT22;4249;49.072;9.770;2022-12-19T16:07:41;2.50;99.90
8424;DHT22;4249;49.072;9.770;2022-12-19T16:10:09;2.50;99.90
8424;DHT22;4249;49.072;9.770;2022-12-19T16:12:38;2.40;99.90
8424;DHT22;4249;49.072;9.770;2022-12-19T16:15:14;2.30;99.90
8424;DHT22;4249;49.072;9.770;2022-12-19T16:17:42;2.20;99.90
8424;DHT22;4249;49.072;9.770;2022-12-19T16:20:16;2.10;99.90
8424;DHT22;4249;49.072;9.770;2022-12-19T16:22:46;2.10;99.90
8424;DHT22;4249;49.072;9.770;2022-12-19T16:25:13;2.10;99.90
8424;DHT22;4249;49.072;9.770;2022-12-19T16:27:41;2.10;1.00
8424;DHT22;4249;49.072;9.770;2022-12-19T16:30:18;2.10;1.00
8424;DHT22;4249;49.072;9.770;2022-12-19T16:32:47;2.10;1.00
8424;DHT22;4249;49.072;9.770;2022-12-19T16:35:16;2.10;1.00
8424;DHT22;4249;49.072;9.770;2022-12-19T16:38:03;2.10;1.00
8424;DHT22;4249;49.072;9.770;2022-12-19T16:40:51;2.10;1.00
8424;DHT22;4249;49.072;9.770;2022-12-19T16:43:41;2.00;1.00
8424;DHT22;4249;49.072;9.770;2022-12-19T16:46:30;2.00;1.00
8424;DHT22;4249;49.072;9.770;2022-12-19T16:49:20;2.00;1.00
8424;DHT22;4249;49.072;9.770;2022-12-19T16:52:08;1.90;1.00
8424;DHT22;4249;49.072;9.770;2022-12-19T16:54:57;1.80;1.00
8424;DHT22;4249;49.072;9.770;2022-12-19T16:57:46;1.80;1.00
8424;DHT22;4249;49.072;9.770;2022-12-19T17:00:35;1.70;1.00
8424;DHT22;4249;49.072;9.770;2022-12-19T17:03:28;1.70;1.00
8424;DHT22;4249;49.072;9.770;2022-12-19T17:06:18;1.70;1.00
8424;DHT22;4249;49.072;9.770;2022-12-19T17:09:11;1.80;1.00
8424;DHT22;4249;49.072;9.770;2022-12-19T17:12:03;1.80;1.00
8424;DHT22;4249;49.072;9.770;2022-12-19T17:14:50;1.80;1.00
8424;DHT22;4249;49.072;9.770;2022-12-19T17:17:38;1.80;1.00
8424;DHT22;4249;49.072;9.770;2022-12-19T17:20:27;1.80;1.00
8424;DHT22;4249;49.072;9.770;2022-12-19T17:23:18;1.70;1.00
8424;DHT22;4249;49.072;9.770;2022-12-19T17:26:06;1.60;1.00
8424;DHT22;4249;49.072;9.770;2022-12-19T17:28:55;1.60;1.00
8424;DHT22;4249;49.072;9.770;2022-12-19T17:31:43;1.50;1.00
8424;DHT22;4249;49.072;9.770;2022-12-19T17:34:31;1.50;1.00
8424;DHT22;4249;49.072;9.770;2022-12-19T17:37:19;1.50;1.00
8424;DHT22;4249;49.072;9.770;2022-12-19T17:40:15;1.50;1.00
8424;DHT22;4249;49.072;9.770;2022-12-19T17:43:02;1.50;1.00
8424;DHT22;4249;49.072;9.770;2022-12-19T17:45:51;1.50;1.00
8424;DHT22;4249;49.072;9.770;2022-12-19T17:48:38;1.50;1.00
8424;DHT22;4249;49.072;9.770;2022-12-19T17:51:25;1.60;1.00
8424;DHT22;4249;49.072;9.770;2022-12-19T17:54:13;1.50;1.00
8424;DHT22;4249;49.072;9.770;2022-12-19T17:57:00;1.50;1.00